createdAt,value
2018-05-15T00:00:59.026Z,55.80
2018-05-15T00:03:30.313Z,55.90
2018-05-15T00:06:02.339Z,56.20
2018-05-15T00:08:33.708Z,56.20
2018-05-15T00:11:05.633Z,56.00
2018-05-15T00:13:36.982Z,55.90
2018-05-15T00:16:08.173Z,55.90
2018-05-15T00:18:39.777Z,56.00
2018-05-15T00:21:11.064Z,56.20
2018-05-15T00:23:42.251Z,56.60
2018-05-15T00:26:14.194Z,56.80
2018-05-15T00:28:45.345Z,56.80
2018-05-15T00:31:17.333Z,56.80
2018-05-15T00:33:48.571Z,56.80
2018-05-15T00:36:19.814Z,56.50
2018-05-15T00:38:51.068Z,56.60
2018-05-15T00:41:22.519Z,57.00
2018-05-15T00:43:53.695Z,57.20
2018-05-15T00:46:24.935Z,57.70
2018-05-15T00:48:56.094Z,57.60
2018-05-15T00:51:27.474Z,57.80
2018-05-15T00:53:59.444Z,58.00
2018-05-15T00:56:30.603Z,57.70
2018-05-15T00:59:01.997Z,57.80
2018-05-15T01:01:33.202Z,57.80
2018-05-15T01:04:05.539Z,57.60
2018-05-15T01:06:37.445Z,58.20
2018-05-15T01:09:08.721Z,58.20
2018-05-15T01:11:40.006Z,57.90
2018-05-15T01:14:11.226Z,57.90
2018-05-15T01:16:43.150Z,57.90
2018-05-15T01:19:14.381Z,57.90
2018-05-15T01:21:46.323Z,58.30
2018-05-15T01:24:17.575Z,58.20
2018-05-15T01:26:48.756Z,58.30
2018-05-15T01:29:19.981Z,58.50
2018-05-15T01:31:51.192Z,58.10
2018-05-15T01:34:23.150Z,58.10
2018-05-15T01:36:54.620Z,58.10
2018-05-15T01:39:27.699Z,58.20
2018-05-15T01:41:59.260Z,58.60
2018-05-15T01:44:30.472Z,58.50
2018-05-15T01:47:02.065Z,58.60
2018-05-15T01:49:33.302Z,58.60
2018-05-15T01:52:04.460Z,58.50
2018-05-15T01:54:37.207Z,58.60
2018-05-15T01:57:08.386Z,58.60
2018-05-15T01:59:39.602Z,58.70
2018-05-15T02:02:10.829Z,58.80
2018-05-15T02:04:42.033Z,58.80
2018-05-15T02:07:13.274Z,59.10
2018-05-15T02:09:44.495Z,59.20
2018-05-15T02:12:15.763Z,59.30
2018-05-15T02:14:46.963Z,59.30
2018-05-15T02:17:18.409Z,59.40
2018-05-15T02:19:49.646Z,59.60
2018-05-15T02:22:20.870Z,59.70
2018-05-15T02:24:52.794Z,59.80
2018-05-15T02:27:24.216Z,59.80
2018-05-15T02:29:55.416Z,59.80
2018-05-15T02:32:27.391Z,59.80
2018-05-15T02:34:58.591Z,59.80
2018-05-15T02:37:29.806Z,60.30
2018-05-15T02:40:01.017Z,59.80
2018-05-15T02:42:32.977Z,59.70
2018-05-15T02:45:04.909Z,59.60
2018-05-15T02:47:36.198Z,60.20
2018-05-15T02:50:07.400Z,59.60
2018-05-15T02:52:38.643Z,59.80
2018-05-15T02:55:09.958Z,59.80
2018-05-15T02:57:41.221Z,59.80
2018-05-15T03:00:12.649Z,59.70
2018-05-15T03:02:43.890Z,60.00
2018-05-15T03:05:15.178Z,59.90
2018-05-15T03:07:46.367Z,60.10
2018-05-15T03:10:17.936Z,60.30
2018-05-15T03:12:49.145Z,60.10
2018-05-15T03:15:20.723Z,60.40
2018-05-15T03:17:52.687Z,60.50
2018-05-15T03:20:23.947Z,60.40
2018-05-15T03:22:55.934Z,60.70
2018-05-15T03:25:27.180Z,59.90
2018-05-15T03:27:58.424Z,59.70
2018-05-15T03:30:30.411Z,59.80
2018-05-15T03:33:02.375Z,59.80
2018-05-15T03:35:33.606Z,59.80
2018-05-15T03:38:04.815Z,59.90
2018-05-15T03:40:36.034Z,60.00
2018-05-15T03:43:07.224Z,60.50
2018-05-15T03:45:38.602Z,60.30
2018-05-15T03:48:10.528Z,60.30
2018-05-15T03:50:41.783Z,60.30
2018-05-15T03:53:13.020Z,60.50
2018-05-15T03:55:44.403Z,61.50
2018-05-15T03:58:15.637Z,60.80
2018-05-15T04:01:00.063Z,61.00
2018-05-15T04:03:43.681Z,61.00
2018-05-15T04:06:27.336Z,61.10
2018-05-15T04:08:59.285Z,61.40
2018-05-15T04:11:30.603Z,61.40
2018-05-15T04:14:01.821Z,61.50
2018-05-15T04:16:33.052Z,61.60
2018-05-15T04:19:04.291Z,61.40
2018-05-15T04:21:37.198Z,61.60
2018-05-15T04:24:08.382Z,61.60
2018-05-15T04:29:40.545Z,61.50
2018-05-15T04:32:11.775Z,61.50
2018-05-15T04:34:42.955Z,61.50
2018-05-15T04:37:14.184Z,61.80
2018-05-15T04:39:45.439Z,61.70
2018-05-15T04:42:16.984Z,61.90
2018-05-15T04:44:48.346Z,62.20
2018-05-15T04:47:19.565Z,62.50
2018-05-15T04:49:51.686Z,62.40
2018-05-15T04:52:22.907Z,62.30
2018-05-15T04:54:54.173Z,62.40
2018-05-15T04:57:25.382Z,62.30
2018-05-15T04:59:56.837Z,62.00
2018-05-15T05:02:28.021Z,62.20
2018-05-15T05:05:00.230Z,62.20
2018-05-15T05:07:31.434Z,62.20
2018-05-15T05:10:03.629Z,61.70
2018-05-15T05:12:34.848Z,61.70
2018-05-15T05:15:06.813Z,60.90
2018-05-15T05:17:38.110Z,60.90
2018-05-15T05:20:09.354Z,60.90
2018-05-15T05:22:40.607Z,60.70
2018-05-15T05:25:11.881Z,60.90
2018-05-15T05:27:43.147Z,60.30
2018-05-15T05:30:14.456Z,61.20
2018-05-15T05:32:45.645Z,60.30
2018-05-15T05:35:16.965Z,60.00
2018-05-15T05:37:48.141Z,60.10
2018-05-15T05:40:19.375Z,59.80
2018-05-15T05:42:50.666Z,59.70
2018-05-15T05:45:21.953Z,59.60
2018-05-15T05:47:53.192Z,59.60
2018-05-15T05:50:25.591Z,90.10
2018-05-15T05:52:56.837Z,87.90
2018-05-15T05:55:28.014Z,59.40
2018-05-15T05:57:59.315Z,59.00
2018-05-15T06:00:30.534Z,58.70
2018-05-15T06:03:01.820Z,58.60
2018-05-15T06:05:33.018Z,58.30
2018-05-15T06:08:05.232Z,58.20
2018-05-15T06:10:36.504Z,58.10
2018-05-15T06:13:07.766Z,58.00
2018-05-15T06:15:39.150Z,58.00
2018-05-15T06:18:11.046Z,58.00
2018-05-15T06:20:42.256Z,57.80
2018-05-15T06:23:13.490Z,57.80
2018-05-15T06:25:44.699Z,57.70
2018-05-15T06:28:15.946Z,57.90
2018-05-15T06:30:47.540Z,58.20
2018-05-15T06:33:18.836Z,57.90
2018-05-15T06:35:50.795Z,57.40
2018-05-15T06:38:22.028Z,57.40
2018-05-15T06:40:53.288Z,57.40
2018-05-15T06:43:24.505Z,57.30
2018-05-15T06:45:55.700Z,57.60
2018-05-15T06:48:27.817Z,56.80
2018-05-15T06:50:59.038Z,56.70
2018-05-15T06:53:30.268Z,57.00
2018-05-15T06:56:01.448Z,57.20
2018-05-15T06:58:33.774Z,57.40
2018-05-15T07:01:10.522Z,57.40
2018-05-15T07:03:43.079Z,57.00
2018-05-15T07:06:14.292Z,56.90
2018-05-15T07:08:45.983Z,56.90
2018-05-15T07:11:17.279Z,57.00
2018-05-15T07:13:48.854Z,56.90
2018-05-15T07:16:20.040Z,57.10
2018-05-15T07:18:51.310Z,57.10
2018-05-15T07:21:22.511Z,56.90
2018-05-15T07:23:53.747Z,57.20
2018-05-15T07:26:24.968Z,57.10
2018-05-15T07:28:56.321Z,57.10
2018-05-15T07:31:27.543Z,57.20
2018-05-15T07:33:58.849Z,57.00
2018-05-15T07:36:30.835Z,56.50
2018-05-15T07:39:02.107Z,56.40
2018-05-15T07:41:33.515Z,55.90
2018-05-15T07:44:04.913Z,56.00
2018-05-15T07:46:36.195Z,55.70
2018-05-15T07:49:08.661Z,55.10
2018-05-15T07:51:40.699Z,54.80
2018-05-15T07:54:11.915Z,54.60
2018-05-15T07:56:43.166Z,54.40
2018-05-15T07:59:14.411Z,54.40
2018-05-15T08:02:15.319Z,53.90
2018-05-15T08:04:47.478Z,53.60
2018-05-15T08:07:39.563Z,53.50
2018-05-15T08:10:11.404Z,53.40
2018-05-15T08:12:42.710Z,53.50
2018-05-15T08:15:14.050Z,53.70
2018-05-15T08:17:45.320Z,53.50
2018-05-15T08:20:16.832Z,53.40
2018-05-15T08:22:48.882Z,51.50
2018-05-15T08:25:20.311Z,51.40
2018-05-15T08:27:51.783Z,51.70
2018-05-15T08:30:23.094Z,51.40
2018-05-15T08:32:54.379Z,51.20
2018-05-15T08:35:27.559Z,50.30
2018-05-15T08:37:58.874Z,50.50
2018-05-15T08:40:30.133Z,48.80
2018-05-15T08:43:01.374Z,48.50
2018-05-15T08:45:32.636Z,47.50
2018-05-15T08:48:03.879Z,47.60
2018-05-15T08:50:35.151Z,47.80
2018-05-15T08:53:06.535Z,47.50
2018-05-15T08:55:38.502Z,47.10
2018-05-15T08:58:10.415Z,46.60
2018-05-15T09:00:41.666Z,46.60
2018-05-15T09:03:12.916Z,45.70
2018-05-15T09:05:44.297Z,45.80
2018-05-15T09:08:15.551Z,46.20
2018-05-15T09:10:47.218Z,46.00
2018-05-15T09:13:18.469Z,44.30
2018-05-15T09:15:49.716Z,43.80
2018-05-15T09:18:21.031Z,43.80
2018-05-15T09:20:52.214Z,44.20
2018-05-15T09:23:23.810Z,44.00
2018-05-15T09:25:57.413Z,44.10
2018-05-15T09:28:29.618Z,42.10
2018-05-15T09:31:01.271Z,42.10
2018-05-15T09:33:34.199Z,41.30
2018-05-15T09:36:06.213Z,41.40
2018-05-15T09:38:37.439Z,41.40
2018-05-15T09:41:08.793Z,41.20
2018-05-15T09:43:54.967Z,41.50
2018-05-15T09:46:26.947Z,42.40
2018-05-15T09:48:59.122Z,42.40
2018-05-15T09:51:30.662Z,42.70
2018-05-15T09:54:02.665Z,41.80
2018-05-15T09:56:34.033Z,41.80
2018-05-15T09:59:05.978Z,41.70
2018-05-15T10:01:37.248Z,41.70
2018-05-15T10:04:09.382Z,41.60
2018-05-15T10:06:40.801Z,41.50
2018-05-15T10:09:12.023Z,41.40
2018-05-15T10:11:43.298Z,41.40
2018-05-15T10:14:16.992Z,41.70
2018-05-15T10:16:48.399Z,41.30
2018-05-15T10:19:20.547Z,41.50
2018-05-15T10:21:51.781Z,41.60
2018-05-15T10:24:23.079Z,41.40
2018-05-15T10:26:54.320Z,41.20
2018-05-15T10:29:26.618Z,41.20
2018-05-15T10:31:57.889Z,41.20
2018-05-15T10:34:29.229Z,40.80
2018-05-15T10:37:00.437Z,41.10
2018-05-15T10:39:31.734Z,41.00
2018-05-15T10:42:02.948Z,40.90
2018-05-15T10:44:34.227Z,40.90
2018-05-15T10:47:05.438Z,40.90
2018-05-15T10:49:36.761Z,40.50
2018-05-15T10:52:07.993Z,41.30
2018-05-15T10:54:40.108Z,41.20
2018-05-15T10:57:11.320Z,41.20
2018-05-15T10:59:42.646Z,42.10
2018-05-15T11:02:13.819Z,41.20
2018-05-15T11:04:45.099Z,40.60
2018-05-15T11:07:16.371Z,41.10
2018-05-15T11:09:47.825Z,41.40
2018-05-15T11:12:19.803Z,41.90
2018-05-15T11:14:51.137Z,41.60
2018-05-15T11:17:22.414Z,42.40
2018-05-15T11:20:05.932Z,42.70
2018-05-15T11:22:59.411Z,42.90
2018-05-15T11:25:30.702Z,43.80
2018-05-15T11:28:01.883Z,42.80
2018-05-15T11:30:33.260Z,42.80
2018-05-15T11:33:04.425Z,43.00
2018-05-15T11:35:35.839Z,42.80
2018-05-15T11:38:07.153Z,43.50
2018-05-15T11:40:38.683Z,43.30
2018-05-15T11:43:09.857Z,42.10
2018-05-15T11:45:41.145Z,42.20
2018-05-15T11:48:13.121Z,42.20
2018-05-15T11:50:44.694Z,42.80
2018-05-15T11:53:15.841Z,42.80
2018-05-15T11:55:46.326Z,42.80
2018-05-15T11:58:17.583Z,42.60
2018-05-15T12:00:49.501Z,42.20
2018-05-15T12:03:22.198Z,42.20
2018-05-15T12:05:53.503Z,41.90
2018-05-15T12:08:24.766Z,42.40
2018-05-15T12:10:56.015Z,42.30
2018-05-15T12:13:27.296Z,41.90
2018-05-15T12:15:58.636Z,40.80
2018-05-15T12:18:32.011Z,40.80
2018-05-15T12:21:03.719Z,41.00
2018-05-15T12:23:35.071Z,41.00
2018-05-15T12:26:07.030Z,42.00
2018-05-15T12:28:38.278Z,42.00
2018-05-15T12:31:10.527Z,41.70
2018-05-15T12:33:42.532Z,41.60
2018-05-15T12:36:14.534Z,42.20
2018-05-15T12:38:45.755Z,42.20
2018-05-15T12:41:17.283Z,41.60
2018-05-15T12:43:48.468Z,41.50
2018-05-15T12:46:21.368Z,41.70
2018-05-15T12:48:54.616Z,42.30
2018-05-15T12:51:25.843Z,42.30
2018-05-15T12:53:57.084Z,42.90
2018-05-15T12:56:29.452Z,42.60
2018-05-15T12:59:00.786Z,42.60
2018-05-15T13:01:32.824Z,42.60
2018-05-15T13:04:03.997Z,43.20
2018-05-15T13:06:35.974Z,41.90
2018-05-15T13:09:07.954Z,42.40
2018-05-15T13:11:39.174Z,41.80
2018-05-15T13:14:10.415Z,42.30
2018-05-15T13:16:41.742Z,42.10
2018-05-15T13:19:12.953Z,42.00
2018-05-15T13:21:44.451Z,42.40
2018-05-15T13:24:16.412Z,42.80
2018-05-15T13:26:48.604Z,42.40
2018-05-15T13:29:19.866Z,42.30
2018-05-15T13:31:51.052Z,43.10
2018-05-15T13:34:22.325Z,42.80
2018-05-15T13:36:53.659Z,42.80
2018-05-15T13:39:24.997Z,43.10
2018-05-15T13:41:56.231Z,43.00
2018-05-15T13:44:28.209Z,43.70
2018-05-15T13:47:00.310Z,43.70
2018-05-15T13:49:31.539Z,43.70
2018-05-15T13:52:02.893Z,43.30
2018-05-15T13:54:34.069Z,43.30
2018-05-15T13:57:05.744Z,42.80
2018-05-15T13:59:37.313Z,43.30
2018-05-15T14:02:09.396Z,44.10
2018-05-15T14:04:41.322Z,45.00
2018-05-15T14:07:13.319Z,45.30
2018-05-15T14:09:44.575Z,45.20
2018-05-15T14:12:15.834Z,45.50
2018-05-15T14:14:47.031Z,45.70
2018-05-15T14:17:18.793Z,46.50
2018-05-15T14:19:50.062Z,46.50
2018-05-15T14:22:21.293Z,46.40
2018-05-15T14:24:53.468Z,50.10
2018-05-15T14:27:30.467Z,50.00
2018-05-15T14:30:01.709Z,50.40
2018-05-15T14:32:33.053Z,51.20
2018-05-15T14:35:04.283Z,51.60
2018-05-15T14:37:36.338Z,55.10
2018-05-15T14:40:08.363Z,55.80
2018-05-15T14:42:52.070Z,55.80
2018-05-15T14:45:24.098Z,68.10
2018-05-15T14:47:56.074Z,80.40
2018-05-15T14:50:27.267Z,80.50
2018-05-15T14:52:58.447Z,85.20
2018-05-15T14:55:30.395Z,89.40
2018-05-15T14:58:02.087Z,89.40
2018-05-15T15:00:33.258Z,89.20
2018-05-15T15:03:04.531Z,89.80
2018-05-15T15:05:36.457Z,90.00
2018-05-15T15:08:07.703Z,88.80
2018-05-15T15:10:38.947Z,89.60
2018-05-15T15:13:10.136Z,89.80
2018-05-15T15:15:42.144Z,90.60
2018-05-15T15:18:13.372Z,90.60
2018-05-15T15:20:44.898Z,89.80
2018-05-15T15:23:16.096Z,90.30
2018-05-15T15:25:47.292Z,90.60
2018-05-15T15:28:19.296Z,90.90
2018-05-15T15:30:50.952Z,90.90
2018-05-15T15:33:24.096Z,90.80
2018-05-15T15:35:58.620Z,91.40
2018-05-15T15:38:30.033Z,91.30
2018-05-15T15:41:01.866Z,91.40
2018-05-15T15:43:34.241Z,91.60
2018-05-15T15:46:06.877Z,91.60
2018-05-15T15:48:38.236Z,91.60
2018-05-15T15:51:09.894Z,91.30
2018-05-15T15:53:41.291Z,91.60
2018-05-15T15:56:13.796Z,91.70
2018-05-15T15:58:45.691Z,91.60
2018-05-15T16:01:18.336Z,91.80
2018-05-15T16:03:50.044Z,91.80
2018-05-15T16:06:21.598Z,91.60
2018-05-15T16:08:53.850Z,91.00
2018-05-15T16:11:25.709Z,91.00
2018-05-15T16:13:57.570Z,91.30
2018-05-15T16:16:29.040Z,90.60
2018-05-15T16:19:01.111Z,91.40
2018-05-15T16:21:32.857Z,91.70
2018-05-15T16:24:05.642Z,91.40
2018-05-15T16:26:37.781Z,91.40
2018-05-15T16:29:10.339Z,90.80
2018-05-15T16:31:42.636Z,90.90
2018-05-15T16:34:14.155Z,90.80
2018-05-15T16:36:45.572Z,90.80
2018-05-15T16:39:18.069Z,90.70
2018-05-15T16:41:49.390Z,90.60
2018-05-15T16:44:20.889Z,90.70
2018-05-15T16:46:52.550Z,90.80
2018-05-15T16:49:24.843Z,90.60
2018-05-15T16:51:56.297Z,90.60
2018-05-15T16:54:27.539Z,90.50
2018-05-15T16:56:58.964Z,90.80
2018-05-15T16:59:31.877Z,90.90
2018-05-15T17:02:03.170Z,91.40
2018-05-15T17:04:34.508Z,91.20
2018-05-15T17:07:05.763Z,91.30
2018-05-15T17:09:37.057Z,90.80
2018-05-15T17:12:08.253Z,90.90
2018-05-15T17:14:39.482Z,91.00
2018-05-15T17:17:10.706Z,91.10
2018-05-15T17:19:42.735Z,91.30
2018-05-15T17:22:14.146Z,91.30
2018-05-15T17:24:45.389Z,91.40
2018-05-15T17:27:16.621Z,91.50
2018-05-15T17:29:47.906Z,91.90
2018-05-15T17:32:19.203Z,91.70
2018-05-15T17:34:50.462Z,92.20
2018-05-15T17:37:21.661Z,92.10
2018-05-15T17:39:54.426Z,92.00
2018-05-15T17:42:26.418Z,91.80
2018-05-15T17:44:57.598Z,91.80
2018-05-15T17:47:29.209Z,92.10
2018-05-15T17:50:00.415Z,91.70
2018-05-15T17:52:31.617Z,92.10
2018-05-15T17:55:03.605Z,91.60
2018-05-15T17:57:34.937Z,91.60
2018-05-15T18:00:06.375Z,92.00
2018-05-15T18:02:38.073Z,91.70
2018-05-15T18:05:10.497Z,91.70
2018-05-15T18:07:42.799Z,91.80
2018-05-15T18:10:14.223Z,91.60
2018-05-15T18:12:46.247Z,91.50
2018-05-15T18:15:17.515Z,91.50
2018-05-15T18:17:48.653Z,91.40
2018-05-15T18:20:20.691Z,91.50
2018-05-15T18:22:52.200Z,91.80
2018-05-15T18:25:23.650Z,91.50
2018-05-15T18:27:54.842Z,91.90
2018-05-15T18:30:26.055Z,91.70
2018-05-15T18:32:57.294Z,91.80
2018-05-15T18:35:28.538Z,91.90
2018-05-15T18:37:59.826Z,92.20
2018-05-15T18:40:31.251Z,92.20
2018-05-15T18:43:02.444Z,92.10
2018-05-15T18:45:34.415Z,92.20
2018-05-15T18:48:06.353Z,92.10
2018-05-15T18:50:38.420Z,92.30
2018-05-15T18:53:09.626Z,92.30
2018-05-15T18:55:41.053Z,92.30
2018-05-15T18:58:12.306Z,92.20
2018-05-15T19:00:43.544Z,92.30
2018-05-15T19:03:14.775Z,91.90
2018-05-15T19:05:46.076Z,92.00
2018-05-15T19:08:17.305Z,92.20
2018-05-15T19:10:48.568Z,92.10
2018-05-15T19:13:19.738Z,92.30
2018-05-15T19:15:50.951Z,92.70
2018-05-15T19:18:22.233Z,92.50
2018-05-15T19:20:53.533Z,92.40
2018-05-15T19:23:25.862Z,93.00
2018-05-15T19:25:57.157Z,93.00
2018-05-15T19:28:28.374Z,93.00
2018-05-15T19:30:59.676Z,93.10
2018-05-15T19:33:37.771Z,93.40
2018-05-15T19:36:09.863Z,93.40
2018-05-15T19:38:41.047Z,93.20
2018-05-15T19:41:18.396Z,93.20
2018-05-15T19:43:49.567Z,93.40
2018-05-15T19:46:20.796Z,93.60
2018-05-15T19:48:52.112Z,93.50
2018-05-15T19:51:24.202Z,93.60
2018-05-15T19:53:55.422Z,93.60
2018-05-15T19:56:27.406Z,93.40
2018-05-15T19:58:58.588Z,93.40
2018-05-15T20:01:29.807Z,93.50
2018-05-15T20:04:01.040Z,93.60
2018-05-15T20:06:32.244Z,93.60
2018-05-15T20:09:04.258Z,93.70
2018-05-15T20:11:35.461Z,93.70
2018-05-15T20:14:06.799Z,93.60
2018-05-15T20:16:38.839Z,93.80
2018-05-15T20:19:10.103Z,93.80
2018-05-15T20:21:42.106Z,93.70
2018-05-15T20:24:13.338Z,93.70
2018-05-15T20:26:44.626Z,93.60
2018-05-15T20:29:15.965Z,93.40
2018-05-15T20:31:47.179Z,93.50
2018-05-15T20:34:18.374Z,93.70
2018-05-15T20:36:50.391Z,93.90
2018-05-15T20:39:21.626Z,93.90
2018-05-15T20:41:52.870Z,94.00
2018-05-15T20:44:24.086Z,93.80
2018-05-15T20:46:56.049Z,93.70
2018-05-15T20:49:28.249Z,93.80
2018-05-15T20:51:59.436Z,93.80
2018-05-15T20:54:30.735Z,93.70
2018-05-15T20:57:02.085Z,93.70
2018-05-15T20:59:33.408Z,93.70
2018-05-15T21:02:04.702Z,93.70
2018-05-15T21:04:36.059Z,93.60
2018-05-15T21:07:07.248Z,93.60
2018-05-15T21:09:39.404Z,93.60
2018-05-15T21:12:10.697Z,93.60
2018-05-15T21:14:41.959Z,93.40
2018-05-15T21:17:13.903Z,93.60
2018-05-15T21:19:45.201Z,93.60
2018-05-15T21:22:18.783Z,93.70
2018-05-15T21:24:50.003Z,93.70
2018-05-15T21:27:22.001Z,93.60
2018-05-15T21:29:54.366Z,93.70
2018-05-15T21:32:25.578Z,93.60
2018-05-15T21:34:57.094Z,93.70
2018-05-15T21:37:28.391Z,93.60
2018-05-15T21:39:59.627Z,93.50
2018-05-15T21:42:31.661Z,93.40
2018-05-15T21:45:03.130Z,93.40
2018-05-15T21:47:35.461Z,93.60
2018-05-15T21:50:06.919Z,93.60
2018-05-15T21:52:39.280Z,93.50
2018-05-15T21:55:10.556Z,93.70
2018-05-15T21:57:42.212Z,93.50
2018-05-15T22:00:14.145Z,93.90
2018-05-15T22:02:45.696Z,93.50
2018-05-15T22:05:16.906Z,93.60
2018-05-15T22:07:48.081Z,93.70
2018-05-15T22:10:19.310Z,93.60
2018-05-15T22:13:03.197Z,93.50
2018-05-15T22:15:46.821Z,93.40
2018-05-15T22:18:30.230Z,93.70
2018-05-15T22:21:13.866Z,93.60
2018-05-15T22:23:44.966Z,93.70
2018-05-15T22:26:16.275Z,93.80
2018-05-15T22:28:47.465Z,93.80
2018-05-15T22:31:18.689Z,93.90
2018-05-15T22:33:49.891Z,93.60
2018-05-15T22:36:21.167Z,93.70
2018-05-15T22:38:52.354Z,93.60
2018-05-15T22:41:23.578Z,93.60
2018-05-15T22:43:55.553Z,93.70
2018-05-15T22:46:27.566Z,93.80
2018-05-15T22:48:58.769Z,93.80
2018-05-15T22:51:30.008Z,93.80
2018-05-15T22:54:01.231Z,93.70
2018-05-15T22:56:35.226Z,93.70
2018-05-15T22:59:07.055Z,93.60
2018-05-15T23:01:38.294Z,93.70
2018-05-15T23:04:09.553Z,93.60
2018-05-15T23:06:40.735Z,93.70
2018-05-15T23:09:11.942Z,93.80
2018-05-15T23:11:43.149Z,93.80
2018-05-15T23:14:15.110Z,93.60
2018-05-15T23:16:46.278Z,93.50
2018-05-15T23:19:17.714Z,93.60
2018-05-15T23:21:48.879Z,93.60
2018-05-15T23:24:20.508Z,93.60
2018-05-15T23:26:51.726Z,93.70
2018-05-15T23:29:23.715Z,93.50
2018-05-15T23:31:54.909Z,93.50
2018-05-15T23:34:26.148Z,93.50
2018-05-15T23:36:57.320Z,93.50
2018-05-15T23:39:29.304Z,93.40
2018-05-15T23:42:00.494Z,93.30
2018-05-15T23:44:31.731Z,93.70
2018-05-15T23:47:02.913Z,93.70
2018-05-15T23:49:35.135Z,93.80
2018-05-15T23:52:06.322Z,93.80
2018-05-15T23:54:38.269Z,94.10
2018-05-15T23:57:09.550Z,94.00
2018-05-15T23:59:40.747Z,94.00
